Flight Track Log - Related Links

Times and Time Zones

All times are in EDT time to prevent confusion due to time zone crossing. See the N5920V flight status page for this flight to view local times or setup timezone preferences in your user account.

Time Position Orientation Groundspeed Altitude Reporting Facility
EDT Latitude Longitude Course Direction KTS MPH feet Rate Location/Type
Mon 07:44:54 PM 28.8667 -81.0167 180° South 145 167 6,500  Level Orlando TRACON
Mon 07:45:48 PM 28.8333 -81.0167 180° South 140 161 6,500  Level Orlando TRACON
Mon 07:46:54 PM 28.7833 -81.0000 164° South 141 162 6,500  Level Orlando TRACON
Mon 07:47:54 PM 28.7500 -81.0000 180° South 139 160 6,500 50 Level Orlando TRACON
Mon 07:48:54 PM 28.7167 -81.0000 180° South 140 161 6,600  Climbing Orlando TRACON
Mon 07:49:54 PM 28.6667 -81.0000 180° South 143 165 6,500 -53 Descending Orlando TRACON
Mon 07:50:48 PM 28.6333 -81.0000 180° South 144 166 6,500  Level Orlando TRACON
Mon 07:51:54 PM 28.5833 -80.9833 164° South 141 162 6,500  Level Orlando TRACON
Mon 07:52:55 PM 28.5500 -80.9833 180° South 141 162 6,500 209 Level Orlando TRACON
Mon 07:53:49 PM 28.5167 -80.9833 180° South 119 137 6,900 550 Climbing Orlando TRACON
Mon 07:54:55 PM 28.4833 -80.9667 156° South 109 125 7,600 591 Climbing Orlando TRACON
Mon 07:56:01 PM 28.4500 -80.9667 180° South 118 136 8,200 409 Climbing Orlando TRACON
Mon 07:57:07 PM 28.4167 -80.9667 180° South 131 151 8,500 200 Climbing Orlando TRACON
Mon 07:58:01 PM 28.3833 -80.9500 156° South 140 161 8,600 56 Climbing Orlando TRACON
Mon 07:58:55 PM 28.3500 -80.9500 180° South 144 166 8,600 -53 Level Orlando TRACON
Mon 07:59:55 PM 28.3167 -80.9500 180° South 139 160 8,500 -48 Descending Orlando TRACON
Mon 08:01:01 PM 28.2833 -81.0000 233° Southwest 144 166 8,500  Level Orlando TRACON
Mon 08:01:55 PM 28.2500 -81.0167 204° Southwest 142 163 8,500 -53 Level Orlando TRACON
Mon 08:02:55 PM 28.2333 -81.0500 240° Southwest 144 166 8,400 -53 Descending Orlando TRACON
Mon 08:03:49 PM 28.2000 -81.0833 221° Southwest 140 161 8,400 45 Level Orlando TRACON
Mon 08:05:07 PM 28.1667 -81.1333 233° Southwest 136 157 8,500 69 Climbing Orlando TRACON
Mon 08:06:42 PM 28.1314 -81.1792 229° Southwest 137 158 8,600 39 Climbing Miami Center
Mon 08:07:42 PM 28.1033 -81.2111 225° Southwest 142 163 8,600  Level Miami Center
Mon 08:08:42 PM 28.0814 -81.2456 234° Southwest 142 163 8,600  Level Miami Center
Mon 08:09:42 PM 28.0614 -81.2822 238° Southwest 142 163 8,600 -50 Level Miami Center
Mon 08:10:42 PM 28.0436 -81.3192 241° Southwest 142 163 8,500  Descending Miami Center
Mon 08:11:42 PM 28.0172 -81.3583 233° Southwest 147 169 8,600  Climbing Miami Center
Mon 08:12:42 PM 27.9933 -81.3925 232° Southwest 147 169 8,500 -50 Descending Miami Center
Mon 08:13:42 PM 27.9611 -81.4194 216° Southwest 147 169 8,500  Level Miami Center
Mon 08:14:42 PM 27.9233 -81.4297 194° South 140 161 8,500 200 Level Miami Center
Mon 08:15:42 PM 27.8872 -81.4469 203° Southwest 140 161 8,900 500 Climbing Miami Center
Mon 08:16:42 PM 27.8578 -81.4575 198° South 133 153 9,500 500 Climbing Miami Center
Mon 08:17:42 PM 27.8239 -81.4703 198° South 127 146 9,900 450 Climbing Miami Center
Mon 08:18:42 PM 27.7942 -81.4856 204° Southwest 127 146 10,400 300 Climbing Miami Center
Mon 08:19:42 PM 27.7600 -81.5075 210° Southwest 133 153 10,500 100 Climbing Miami Center
Mon 08:20:42 PM 27.7222 -81.5200 196° South 138 159 10,600  Climbing Miami Center
Mon 08:21:42 PM 27.6822 -81.5278 190° South 143 165 10,500  Descending Miami Center
Mon 08:22:42 PM 27.6403 -81.5331 186° South 148 170 10,600 50 Climbing Miami Center
Mon 08:23:42 PM 27.6006 -81.5339 181° South 148 170 10,600 50 Level Miami Center
Mon 08:24:42 PM 27.5586 -81.5417 189° South 148 170 10,700 50 Climbing Miami Center
Mon 08:25:42 PM 27.5167 -81.5492 189° South 148 170 10,700 -50 Level Miami Center
Mon 08:26:42 PM 27.4767 -81.5592 193° South 148 170 10,600 -50 Descending Miami Center
Mon 08:27:42 PM 27.4344 -81.5692 192° South 148 170 10,600  Level Miami Center
Mon 08:28:42 PM 27.3964 -81.5839 199° South 148 170 10,600  Level Miami Center
Mon 08:29:42 PM 27.3583 -81.6058 207° Southwest 148 170 10,600 -50 Level Miami Center
Mon 08:30:42 PM 27.3239 -81.6325 215° Southwest 159 183 10,500 -50 Descending Miami Center
Mon 08:31:42 PM 27.2878 -81.6567 211° Southwest 159 183 10,500 -50 Level Miami Center
Mon 08:32:42 PM 27.2536 -81.6808 212° Southwest 159 183 10,400  Descending Miami Center
Mon 08:33:42 PM 27.2175 -81.6981 203° Southwest 152 175 10,500 50 Climbing Miami Center
Mon 08:34:42 PM 27.1853 -81.7247 216° Southwest 152 175 10,500  Level Miami Center
Mon 08:35:42 PM 27.1592 -81.7586 229° Southwest 152 175 10,500  Level Miami Center
Mon 08:36:42 PM 27.1308 -81.7900 225° Southwest 147 169 10,500  Level Miami Center
Mon 08:37:42 PM 27.1006 -81.8239 225° Southwest 147 169 10,500 50 Level Miami Center
Mon 08:38:42 PM 27.0703 -81.8550 222° Southwest 147 169 10,600 50 Climbing Miami Center
Mon 08:39:42 PM 27.0397 -81.8864 222° Southwest 147 169 10,600  Level Miami Center
Mon 08:40:42 PM 27.0094 -81.9200 225° Southwest 147 169 10,600  Level Miami Center
Mon 08:41:42 PM 26.9831 -81.9564 231° Southwest 147 169 10,600 -50 Level Miami Center
Mon 08:42:42 PM 26.9569 -81.9878 227° Southwest 147 169 10,500 -250 Descending Miami Center
Mon 08:43:42 PM 26.9222 -82.0233 222° Southwest 154 177 10,100 -252 Descending Miami Center
Mon 08:44:41 PM 26.8806 -82.0239 181° South 159 183 10,000 -250 Descending Miami Center
Mon 08:45:42 PM 26.8375 -82.0058 159° South 144 166 9,600 -446 Descending Miami Center
Mon 08:46:42 PM 26.7961 -81.9900 161° South 154 177 9,100 -450 Descending Miami Center
Mon 08:47:42 PM 26.7575 -81.9603 145° Southeast 165 190 8,700 -454 Descending Miami Center
Mon 08:48:41 PM 26.7164 -81.9400 156° South 165 190 8,200 -555 Descending Miami Center
Mon 08:49:41 PM 26.6711 -81.9242 163° South 170 196 7,600 -545 Descending Miami Center
Mon 08:50:42 PM 26.6297 -81.9153 169° South 170 196 7,100 -550 Descending Miami Center
Mon 08:51:41 PM 26.5864 -81.9042 163° South 165 190 6,500 -700 Descending Miami Center
Mon 08:52:00 PM 26.5490 -81.9047 163° South  Level FlightAware Approximate
Mon 08:52:42 PM 26.5428 -81.8906 164° South 160 184 5,700  Level Miami Center
Mon 08:55:00 PM 26.4065 -81.8475 164° South  Level FlightAware Approximate
Mon 09:02:00 PM 26.1500 -81.7667 163° South  Level FlightAware Approximate
Mon 09:03:00 PM 26.1524 -81.7756 163° South  Level Estimated
Mon 09:04:00 PM 26.1524 -81.7756 163° South  Level Estimated
Mon 09:05:00 PM 26.1524 -81.7756 163° South  Level Estimated
Mon 09:06:00 PM 26.1524 -81.7756 163° South  Level Estimated
Mon 09:07:00 PM 26.1524 -81.7756 163° South  Level Estimated
Mon 09:08:00 PM 26.1524 -81.7756 163° South  Level Estimated
Mon 09:09:00 PM 26.1524 -81.7756 163° South  Level Estimated
Mon 09:10:00 PM 26.1524 -81.7756 163° South  Level Estimated
Mon 09:11:00 PM 26.1524 -81.7756 163° South  Level Estimated
Mon 09:12:00 PM 26.1524 -81.7756 163° South  Level Estimated

Login

Don't have an account? Register now (free) for customized features, flight alerts, and more!